createdAt,value
2023-04-27T00:01:24.311Z,1.16
2023-04-27T00:03:57.786Z,1.15
2023-04-27T00:06:26.763Z,1.10
2023-04-27T00:09:07.569Z,0.99
2023-04-27T00:11:54.569Z,1.06
2023-04-27T00:14:28.778Z,1.05
2023-04-27T00:17:02.627Z,1.01
2023-04-27T00:19:37.580Z,0.96
2023-04-27T00:22:10.619Z,1.06
2023-04-27T00:24:37.531Z,0.92
2023-04-27T00:27:10.602Z,0.97
2023-04-27T00:29:37.511Z,0.82
2023-04-27T00:32:12.816Z,0.83
2023-04-27T00:34:39.789Z,0.66
2023-04-27T00:37:13.555Z,0.77
2023-04-27T00:39:47.711Z,0.75
2023-04-27T00:42:24.627Z,0.68
2023-04-27T00:44:51.666Z,0.46
2023-04-27T00:47:25.528Z,0.51
2023-04-27T00:49:53.692Z,0.56
2023-04-27T00:52:20.726Z,0.52
2023-04-27T00:54:58.614Z,0.45
2023-04-27T00:57:25.807Z,0.45
2023-04-27T01:00:07.628Z,0.36
2023-04-27T01:02:35.398Z,0.35
2023-04-27T01:05:09.749Z,0.36
2023-04-27T01:07:43.016Z,0.24
2023-04-27T01:10:16.638Z,0.35
2023-04-27T01:12:57.821Z,0.31
2023-04-27T01:15:31.693Z,0.30
2023-04-27T01:18:02.203Z,0.11
2023-04-27T01:20:37.498Z,0.24
2023-04-27T01:23:04.904Z,0.38
2023-04-27T01:25:38.761Z,0.29
2023-04-27T01:28:12.553Z,0.27
2023-04-27T01:30:45.749Z,0.20
2023-04-27T01:33:19.541Z,0.23
2023-04-27T01:35:46.540Z,0.10
2023-04-27T01:38:20.605Z,0.08
2023-04-27T01:40:47.516Z,0.06
2023-04-27T01:43:20.591Z,0.17
2023-04-27T01:45:48.802Z,0.00
2023-04-27T01:48:22.643Z,0.11
2023-04-27T01:50:49.429Z,0.07
2023-04-27T01:53:22.588Z,0.11
2023-04-27T01:55:55.641Z,0.09
2023-04-27T01:58:22.598Z,-0.02
2023-04-27T02:01:01.489Z,0.00
2023-04-27T02:03:34.759Z,0.02
2023-04-27T02:06:08.613Z,-0.02
2023-04-27T02:08:35.738Z,-0.05
2023-04-27T02:11:09.713Z,-0.15
2023-04-27T02:13:43.189Z,-0.13
2023-04-27T02:16:16.598Z,-0.22
2023-04-27T02:18:50.580Z,-0.25
2023-04-27T02:21:17.476Z,-0.09
2023-04-27T02:23:50.747Z,-0.13
2023-04-27T02:26:19.630Z,-0.26
2023-04-27T02:28:56.667Z,-0.11
2023-04-27T02:31:24.119Z,-0.20
2023-04-27T02:33:57.576Z,-0.17
2023-04-27T02:36:24.494Z,-0.32
2023-04-27T02:38:57.603Z,-0.20
2023-04-27T02:41:24.451Z,-0.25
2023-04-27T02:43:58.583Z,-0.27
2023-04-27T02:46:25.493Z,-0.33
2023-04-27T02:48:59.719Z,-0.29
2023-04-27T02:51:27.216Z,-0.26
2023-04-27T02:54:00.632Z,-0.34
2023-04-27T02:56:27.539Z,-0.50
2023-04-27T02:59:00.617Z,-0.36
2023-04-27T03:01:27.630Z,-0.40
2023-04-27T03:04:00.873Z,-0.54
2023-04-27T03:06:34.914Z,-0.46
2023-04-27T03:09:01.842Z,-0.55
2023-04-27T03:11:41.913Z,-0.45
2023-04-27T03:14:15.073Z,-0.48
2023-04-27T03:16:51.831Z,-0.53
2023-04-27T03:19:18.774Z,-0.57
2023-04-27T03:21:51.666Z,-0.58
2023-04-27T03:24:18.813Z,-0.54
2023-04-27T03:26:52.633Z,-0.66
2023-04-27T03:29:19.596Z,-0.70
2023-04-27T03:31:52.637Z,-0.71
2023-04-27T03:34:21.232Z,-0.75
2023-04-27T03:36:54.688Z,-0.68
2023-04-27T03:39:21.607Z,-0.74
2023-04-27T03:41:54.610Z,-0.90
2023-04-27T03:44:27.578Z,-0.92
2023-04-27T03:46:54.235Z,-0.98
2023-04-27T03:49:27.578Z,-0.90
2023-04-27T03:51:54.416Z,-0.97
2023-04-27T03:54:29.044Z,-0.99
2023-04-27T03:56:56.323Z,-1.04
2023-04-27T03:59:29.614Z,-1.05
2023-04-27T04:02:00.804Z,-1.08
2023-04-27T04:04:35.917Z,-1.06
2023-04-27T04:07:06.156Z,-1.18
2023-04-27T04:09:39.756Z,-1.06
2023-04-27T04:12:13.826Z,-1.18
2023-04-27T04:14:55.670Z,-1.25
2023-04-27T04:17:22.675Z,-1.19
2023-04-27T04:19:49.573Z,-1.17
2023-04-27T04:22:22.647Z,-1.11
2023-04-27T04:24:49.489Z,-1.05
2023-04-27T04:27:22.545Z,-1.05
2023-04-27T04:29:49.297Z,-1.03
2023-04-27T04:32:25.789Z,-0.99
2023-04-27T04:34:52.638Z,-1.14
2023-04-27T04:37:19.549Z,-1.05
2023-04-27T04:39:52.677Z,-1.02
2023-04-27T04:42:25.589Z,-1.13
2023-04-27T04:44:52.752Z,-1.00
2023-04-27T04:47:25.628Z,-0.96
2023-04-27T04:49:52.426Z,-0.92
2023-04-27T04:52:25.583Z,-0.87
2023-04-27T04:54:53.506Z,-0.81
2023-04-27T04:57:20.232Z,-0.68
2023-04-27T04:59:53.674Z,-0.67
2023-04-27T05:02:21.135Z,-0.74
2023-04-27T05:04:54.771Z,-0.68
2023-04-27T05:07:24.781Z,-0.62
2023-04-27T05:09:58.704Z,-0.57
2023-04-27T05:12:31.826Z,-0.50
2023-04-27T05:15:12.733Z,-0.47
2023-04-27T05:17:39.689Z,-0.44
2023-04-27T05:20:15.943Z,-0.35
2023-04-27T05:22:42.996Z,-0.23
2023-04-27T05:25:16.772Z,-0.13
2023-04-27T05:27:43.577Z,-0.01
2023-04-27T05:30:17.664Z,-0.02
2023-04-27T05:32:50.746Z,0.10
2023-04-27T05:35:24.707Z,-0.06
2023-04-27T05:37:51.590Z,0.20
2023-04-27T05:40:24.672Z,0.20
2023-04-27T05:42:51.575Z,0.36
2023-04-27T05:45:18.413Z,0.44
2023-04-27T05:47:51.773Z,0.55
2023-04-27T05:50:18.737Z,0.49
2023-04-27T05:52:52.675Z,0.65
2023-04-27T05:55:19.759Z,0.71
2023-04-27T05:58:06.680Z,0.94
2023-04-27T06:00:35.183Z,1.05
2023-04-27T06:03:08.854Z,1.11
2023-04-27T06:05:42.729Z,1.29
2023-04-27T06:08:15.643Z,1.48
2023-04-27T06:10:42.430Z,1.61
2023-04-27T06:13:22.660Z,1.69
2023-04-27T06:15:50.963Z,1.76
2023-04-27T06:18:24.648Z,1.88
2023-04-27T06:20:51.797Z,2.03
2023-04-27T06:23:24.753Z,2.16
2023-04-27T06:25:57.636Z,2.22
2023-04-27T06:28:24.522Z,2.36
2023-04-27T06:30:57.742Z,2.55
2023-04-27T06:33:24.613Z,2.65
2023-04-27T06:35:58.722Z,2.78
2023-04-27T06:38:25.445Z,2.88
2023-04-27T06:41:00.499Z,3.03
2023-04-27T06:43:27.386Z,3.16
2023-04-27T06:45:54.180Z,3.22
2023-04-27T06:48:28.657Z,3.39
2023-04-27T06:51:01.664Z,3.52
2023-04-27T06:53:34.665Z,3.64
2023-04-27T06:56:08.747Z,3.81
2023-04-27T06:58:35.541Z,3.93
2023-04-27T07:01:02.861Z,4.02
2023-04-27T07:03:36.924Z,4.12
2023-04-27T07:06:10.789Z,4.29
2023-04-27T07:08:44.674Z,4.48
2023-04-27T07:11:16.366Z,4.62
2023-04-27T07:13:56.649Z,4.74
2023-04-27T07:16:23.552Z,4.86
2023-04-27T07:18:56.764Z,5.00
2023-04-27T07:21:23.531Z,5.11
2023-04-27T07:23:56.657Z,5.20
2023-04-27T07:26:30.682Z,5.24
2023-04-27T07:28:57.987Z,5.37
2023-04-27T07:31:31.748Z,5.46
2023-04-27T07:34:07.733Z,5.56
2023-04-27T07:36:34.503Z,5.65
2023-04-27T07:39:07.683Z,5.69
2023-04-27T07:41:34.979Z,5.86
2023-04-27T07:44:08.652Z,5.92
2023-04-27T07:46:41.878Z,5.98
2023-04-27T07:49:08.604Z,6.10
2023-04-27T07:51:41.947Z,6.18
2023-04-27T07:54:09.248Z,6.28
2023-04-27T07:56:42.774Z,6.40
2023-04-27T07:59:16.008Z,6.52
2023-04-27T08:01:44.036Z,6.68
2023-04-27T08:04:18.931Z,6.81
2023-04-27T08:06:47.057Z,6.86
2023-04-27T08:09:20.712Z,6.96
2023-04-27T08:12:00.699Z,7.13
2023-04-27T08:14:43.686Z,7.22
2023-04-27T08:17:11.780Z,7.26
2023-04-27T08:19:45.741Z,7.38
2023-04-27T08:22:18.775Z,7.51
2023-04-27T08:24:51.752Z,7.59
2023-04-27T08:27:18.601Z,7.61
2023-04-27T08:29:55.724Z,7.73
2023-04-27T08:32:22.542Z,7.83
2023-04-27T08:34:55.710Z,7.99
2023-04-27T08:37:22.455Z,8.01
2023-04-27T08:39:55.757Z,8.03
2023-04-27T08:42:22.499Z,8.05
2023-04-27T08:44:55.719Z,8.17
2023-04-27T08:47:34.684Z,8.32
2023-04-27T08:50:14.675Z,8.47
2023-04-27T08:52:45.064Z,8.66
2023-04-27T08:55:18.745Z,8.87
2023-04-27T08:58:02.748Z,9.21
2023-04-27T09:00:44.566Z,9.40
2023-04-27T09:03:31.922Z,9.75
2023-04-27T09:06:05.139Z,9.95
2023-04-27T09:09:09.735Z,10.28
2023-04-27T09:15:30.958Z,10.30
2023-04-27T09:18:28.798Z,10.15
2023-04-27T09:21:10.804Z,10.19
2023-04-27T09:31:12.042Z,11.04
2023-04-27T09:34:23.804Z,11.34
2023-04-27T09:37:25.793Z,11.56
2023-04-27T09:46:24.213Z,12.43
2023-04-27T10:22:24.252Z,13.40
2023-04-27T10:31:27.866Z,13.78
2023-04-27T10:53:23.785Z,13.24
2023-04-27T10:56:26.779Z,12.95
2023-04-27T11:24:24.442Z,14.57
2023-04-27T11:27:21.870Z,14.64
2023-04-27T11:49:21.055Z,15.00
2023-04-27T12:04:25.390Z,14.56
2023-04-27T12:22:22.695Z,15.65
2023-04-27T12:31:21.879Z,15.81
2023-04-27T12:44:21.820Z,16.53
2023-04-27T13:14:27.922Z,14.79
2023-04-27T13:17:14.868Z,14.36
2023-04-27T13:29:11.979Z,14.80
2023-04-27T13:35:05.670Z,15.40
2023-04-27T13:43:24.584Z,16.35
2023-04-27T13:52:20.902Z,16.19
2023-04-27T14:00:29.139Z,15.01
2023-04-27T14:03:19.057Z,14.86
2023-04-27T14:05:50.974Z,14.81
2023-04-27T14:08:33.906Z,15.10
2023-04-27T14:11:13.277Z,15.29
2023-04-27T14:14:19.416Z,15.46
2023-04-27T14:17:01.145Z,15.62
2023-04-27T14:22:24.996Z,15.67
2023-04-27T14:30:17.067Z,14.94
2023-04-27T14:32:43.936Z,15.01
2023-04-27T14:35:19.436Z,15.17
2023-04-27T14:43:20.967Z,15.43
2023-04-27T14:48:59.097Z,15.51
2023-04-27T14:54:22.976Z,15.59
2023-04-27T14:56:52.400Z,15.58
2023-04-27T14:59:25.909Z,15.35
2023-04-27T15:04:38.228Z,14.78
2023-04-27T15:07:22.024Z,14.60
2023-04-27T15:10:06.472Z,14.37
2023-04-27T15:28:03.529Z,13.70
2023-04-27T15:31:03.030Z,13.71
2023-04-27T15:33:29.804Z,13.76
2023-04-27T15:48:37.171Z,13.71
2023-04-27T15:54:17.933Z,13.49
2023-04-27T16:00:24.938Z,13.61
2023-04-27T16:02:59.372Z,13.60
2023-04-27T16:05:28.306Z,13.78
2023-04-27T16:08:02.083Z,13.87
2023-04-27T16:10:28.989Z,13.90
2023-04-27T16:13:02.092Z,13.92
2023-04-27T16:15:40.079Z,13.81
2023-04-27T16:36:44.977Z,13.14
2023-04-27T16:39:18.028Z,13.17
2023-04-27T16:41:52.093Z,12.97
2023-04-27T16:44:24.958Z,12.96
2023-04-27T16:46:58.984Z,12.85
2023-04-27T16:49:25.917Z,12.72
2023-04-27T16:52:00.963Z,12.64
2023-04-27T16:54:27.835Z,12.51
2023-04-27T16:57:00.966Z,12.50
2023-04-27T16:59:34.022Z,12.47
2023-04-27T17:02:22.972Z,12.43
2023-04-27T17:04:53.981Z,12.40
2023-04-27T17:07:28.160Z,12.40
2023-04-27T17:10:03.071Z,12.39
2023-04-27T17:12:41.521Z,12.37
2023-04-27T17:15:16.720Z,12.25
2023-04-27T17:17:59.171Z,12.25
2023-04-27T17:20:33.023Z,12.18
2023-04-27T17:23:06.082Z,12.14
2023-04-27T17:25:36.357Z,12.08
2023-04-27T17:28:11.097Z,12.00
2023-04-27T17:30:38.620Z,11.94
2023-04-27T17:33:13.133Z,11.85
2023-04-27T17:35:49.511Z,11.79
2023-04-27T17:38:23.000Z,11.66
2023-04-27T17:40:52.994Z,11.68
2023-04-27T17:43:19.897Z,11.51
2023-04-27T17:45:53.188Z,11.50
2023-04-27T17:48:20.419Z,11.53
2023-04-27T17:50:54.319Z,11.47
2023-04-27T17:53:21.224Z,11.41
2023-04-27T17:58:23.618Z,11.19
2023-04-27T18:01:05.191Z,11.27
2023-04-27T18:03:32.146Z,11.21
2023-04-27T18:06:06.097Z,11.16
2023-04-27T18:08:40.539Z,11.11
2023-04-27T18:11:07.453Z,11.07
2023-04-27T18:13:43.450Z,11.02
2023-04-27T18:16:17.155Z,10.96
2023-04-27T18:18:50.056Z,10.89
2023-04-27T18:21:17.071Z,10.86
2023-04-27T18:23:51.051Z,10.81
2023-04-27T18:26:25.081Z,10.77
2023-04-27T18:28:59.057Z,10.68
2023-04-27T18:31:25.897Z,10.67
2023-04-27T18:33:59.152Z,10.61
2023-04-27T18:36:27.878Z,10.52
2023-04-27T18:39:03.081Z,10.50
2023-04-27T18:41:30.327Z,10.48
2023-04-27T18:44:11.100Z,10.44
2023-04-27T18:46:42.117Z,10.38
2023-04-27T18:49:15.152Z,10.33
2023-04-27T18:51:43.330Z,10.27
2023-04-27T18:54:17.010Z,10.25
2023-04-27T18:56:50.094Z,10.20
2023-04-27T18:59:30.793Z,10.15
2023-04-27T19:02:04.208Z,10.08
2023-04-27T19:04:31.131Z,10.08
2023-04-27T19:07:05.029Z,9.95
2023-04-27T19:09:32.065Z,9.93
2023-04-27T19:12:06.066Z,9.78
2023-04-27T19:14:56.149Z,9.94
2023-04-27T19:17:29.127Z,9.89
2023-04-27T19:19:56.183Z,9.73
2023-04-27T19:22:29.094Z,9.83
2023-04-27T19:24:56.232Z,9.80
2023-04-27T19:27:29.026Z,9.65
2023-04-27T19:29:57.783Z,9.74
2023-04-27T19:32:35.047Z,9.68
2023-04-27T19:35:02.694Z,9.68
2023-04-27T19:37:36.079Z,9.62
2023-04-27T19:40:03.036Z,9.63
2023-04-27T19:42:43.260Z,9.56
2023-04-27T19:45:20.351Z,9.57
2023-04-27T19:47:49.206Z,9.53
2023-04-27T19:50:32.064Z,9.51
2023-04-27T19:52:58.895Z,9.47
2023-04-27T19:55:35.300Z,9.26
2023-04-27T19:58:02.032Z,9.38
2023-04-27T20:00:35.090Z,9.38
2023-04-27T20:03:09.239Z,9.39
2023-04-27T20:05:44.322Z,9.35
2023-04-27T20:08:11.917Z,9.31
2023-04-27T20:10:48.109Z,9.27
2023-04-27T20:13:21.075Z,9.22
2023-04-27T20:15:54.455Z,9.15
2023-04-27T20:18:28.217Z,9.02
2023-04-27T20:21:11.495Z,9.16
2023-04-27T20:23:55.261Z,9.16
2023-04-27T20:26:22.723Z,9.14
2023-04-27T20:28:56.218Z,9.12
2023-04-27T20:31:23.265Z,9.09
2023-04-27T20:33:57.160Z,9.07
2023-04-27T20:36:25.047Z,8.94
2023-04-27T20:38:59.256Z,9.00
2023-04-27T20:41:26.187Z,8.95
2023-04-27T20:44:00.106Z,8.90
2023-04-27T20:46:33.584Z,8.86
2023-04-27T20:49:07.193Z,8.92
2023-04-27T20:51:35.724Z,8.80
2023-04-27T20:54:09.125Z,8.90
2023-04-27T20:56:46.251Z,8.89
2023-04-27T20:59:13.091Z,8.86
2023-04-27T21:01:59.972Z,8.88
2023-04-27T21:04:28.169Z,8.89
2023-04-27T21:07:01.185Z,8.82
2023-04-27T21:09:28.164Z,8.83
2023-04-27T21:12:01.118Z,8.80
2023-04-27T21:14:36.245Z,8.80
2023-04-27T21:17:16.290Z,8.78
2023-04-27T21:19:46.273Z,8.82
2023-04-27T21:22:12.958Z,8.78
2023-04-27T21:24:48.088Z,8.80
2023-04-27T21:27:21.156Z,8.79
2023-04-27T21:29:54.093Z,8.79
2023-04-27T21:32:20.943Z,8.79
2023-04-27T21:34:54.160Z,8.76
2023-04-27T21:37:27.469Z,8.76
2023-04-27T21:40:01.139Z,8.73
2023-04-27T21:42:27.958Z,8.73
2023-04-27T21:45:02.191Z,8.71
2023-04-27T21:47:28.985Z,8.73
2023-04-27T21:50:02.254Z,8.73
2023-04-27T21:52:29.052Z,8.71
2023-04-27T21:55:02.186Z,8.73
2023-04-27T21:57:29.108Z,8.72
2023-04-27T22:00:02.340Z,8.69
2023-04-27T22:02:29.924Z,8.67
2023-04-27T22:05:04.240Z,8.68
2023-04-27T22:07:32.815Z,8.70
2023-04-27T22:10:06.266Z,8.70
2023-04-27T22:12:40.127Z,8.69
2023-04-27T22:15:14.493Z,8.65
2023-04-27T22:17:49.225Z,8.66
2023-04-27T22:20:16.418Z,8.65
2023-04-27T22:22:53.138Z,8.56
2023-04-27T22:25:27.085Z,8.66
2023-04-27T22:28:07.211Z,8.63
2023-04-27T22:30:39.540Z,8.63
2023-04-27T22:33:13.356Z,8.57
2023-04-27T22:35:44.262Z,8.48
2023-04-27T22:38:18.240Z,8.60
2023-04-27T22:40:45.328Z,8.52
2023-04-27T22:43:19.205Z,8.51
2023-04-27T22:45:46.150Z,8.40
2023-04-27T22:48:20.148Z,8.51
2023-04-27T22:53:23.059Z,8.46
2023-04-27T22:58:35.279Z,8.45
2023-04-27T23:01:09.270Z,8.40
2023-04-27T23:03:36.703Z,8.32
2023-04-27T23:06:14.314Z,8.27
2023-04-27T23:08:45.941Z,8.25
2023-04-27T23:11:20.207Z,8.17
2023-04-27T23:13:48.492Z,8.12
2023-04-27T23:16:30.418Z,8.13
2023-04-27T23:19:10.456Z,8.07
2023-04-27T23:21:45.187Z,8.08
2023-04-27T23:24:14.839Z,7.90
2023-04-27T23:26:50.181Z,7.94
2023-04-27T23:29:16.973Z,8.02
2023-04-27T23:31:50.227Z,7.92
2023-04-27T23:34:17.283Z,7.94
2023-04-27T23:36:44.769Z,7.92
2023-04-27T23:39:18.315Z,7.83
2023-04-27T23:41:53.317Z,7.85
2023-04-27T23:44:26.332Z,7.79
2023-04-27T23:47:01.840Z,7.75
2023-04-27T23:49:35.188Z,7.68
2023-04-27T23:52:01.962Z,7.68
2023-04-27T23:54:39.282Z,7.59
2023-04-27T23:57:06.787Z,7.58
2023-04-27T23:59:42.224Z,7.53
